sensor_id;sensor_type;location;lat;lon;timestamp;P1;durP1;ratioP1;P2;durP2;ratioP2
75165;SDS011;63747;48.042;10.088;2024-01-15T00:00:29;11.53;;;6.37;;
75165;SDS011;63747;48.042;10.088;2024-01-15T00:03:29;13.33;;;6.97;;
75165;SDS011;63747;48.042;10.088;2024-01-15T00:06:30;13.40;;;8.10;;
75165;SDS011;63747;48.042;10.088;2024-01-15T00:09:32;12.05;;;7.18;;
75165;SDS011;63747;48.042;10.088;2024-01-15T00:12:33;13.73;;;7.63;;
75165;SDS011;63747;48.042;10.088;2024-01-15T00:15:34;12.77;;;7.40;;
75165;SDS011;63747;48.042;10.088;2024-01-15T00:18:34;12.83;;;7.47;;
75165;SDS011;63747;48.042;10.088;2024-01-15T00:21:35;11.80;;;6.40;;
75165;SDS011;63747;48.042;10.088;2024-01-15T00:24:36;13.07;;;6.97;;
75165;SDS011;63747;48.042;10.088;2024-01-15T00:27:39;13.80;;;6.93;;
75165;SDS011;63747;48.042;10.088;2024-01-15T00:30:40;12.25;;;6.97;;
75165;SDS011;63747;48.042;10.088;2024-01-15T00:33:41;12.30;;;6.97;;
75165;SDS011;63747;48.042;10.088;2024-01-15T00:36:41;13.83;;;7.67;;
75165;SDS011;63747;48.042;10.088;2024-01-15T00:39:42;14.87;;;7.87;;
75165;SDS011;63747;48.042;10.088;2024-01-15T00:42:43;10.83;;;6.20;;
75165;SDS011;63747;48.042;10.088;2024-01-15T00:45:44;14.77;;;8.63;;
75165;SDS011;63747;48.042;10.088;2024-01-15T00:48:45;16.77;;;9.68;;
75165;SDS011;63747;48.042;10.088;2024-01-15T00:51:47;17.70;;;9.45;;
75165;SDS011;63747;48.042;10.088;2024-01-15T00:54:48;15.87;;;9.07;;
75165;SDS011;63747;48.042;10.088;2024-01-15T00:57:49;13.90;;;6.73;;
75165;SDS011;63747;48.042;10.088;2024-01-15T01:00:49;16.27;;;9.10;;
75165;SDS011;63747;48.042;10.088;2024-01-15T01:03:50;18.33;;;10.30;;
75165;SDS011;63747;48.042;10.088;2024-01-15T01:06:51;19.67;;;9.90;;
75165;SDS011;63747;48.042;10.088;2024-01-15T01:09:51;17.50;;;9.57;;
75165;SDS011;63747;48.042;10.088;2024-01-15T01:12:52;15.67;;;9.53;;
75165;SDS011;63747;48.042;10.088;2024-01-15T01:15:53;18.13;;;9.47;;
75165;SDS011;63747;48.042;10.088;2024-01-15T01:18:53;17.33;;;9.40;;
75165;SDS011;63747;48.042;10.088;2024-01-15T01:21:54;16.47;;;8.77;;
75165;SDS011;63747;48.042;10.088;2024-01-15T01:24:55;17.83;;;9.50;;
75165;SDS011;63747;48.042;10.088;2024-01-15T01:27:55;19.13;;;10.17;;
75165;SDS011;63747;48.042;10.088;2024-01-15T01:30:56;20.40;;;10.20;;
75165;SDS011;63747;48.042;10.088;2024-01-15T01:33:57;20.10;;;10.57;;
75165;SDS011;63747;48.042;10.088;2024-01-15T01:36:57;19.10;;;10.73;;
75165;SDS011;63747;48.042;10.088;2024-01-15T01:39:58;18.10;;;9.83;;
75165;SDS011;63747;48.042;10.088;2024-01-15T01:42:59;17.53;;;9.10;;
75165;SDS011;63747;48.042;10.088;2024-01-15T01:46:00;16.37;;;9.47;;
75165;SDS011;63747;48.042;10.088;2024-01-15T01:49:01;17.75;;;9.68;;
75165;SDS011;63747;48.042;10.088;2024-01-15T01:52:05;17.50;;;9.98;;
75165;SDS011;63747;48.042;10.088;2024-01-15T02:01:10;18.70;;;9.88;;
75165;SDS011;63747;48.042;10.088;2024-01-15T02:04:13;20.10;;;9.52;;
75165;SDS011;63747;48.042;10.088;2024-01-15T02:07:14;20.05;;;9.95;;
75165;SDS011;63747;48.042;10.088;2024-01-15T02:10:17;16.45;;;9.25;;
75165;SDS011;63747;48.042;10.088;2024-01-15T02:13:18;17.93;;;10.00;;
75165;SDS011;63747;48.042;10.088;2024-01-15T02:16:21;20.50;;;9.75;;
75165;SDS011;63747;48.042;10.088;2024-01-15T02:19:22;17.63;;;9.23;;
75165;SDS011;63747;48.042;10.088;2024-01-15T02:22:25;19.45;;;10.18;;
75165;SDS011;63747;48.042;10.088;2024-01-15T02:25:26;17.70;;;9.97;;
75165;SDS011;63747;48.042;10.088;2024-01-15T02:28:26;18.07;;;9.70;;
75165;SDS011;63747;48.042;10.088;2024-01-15T02:31:27;20.00;;;9.87;;
75165;SDS011;63747;48.042;10.088;2024-01-15T02:34:31;18.87;;;9.63;;
75165;SDS011;63747;48.042;10.088;2024-01-15T02:37:32;18.17;;;9.50;;
75165;SDS011;63747;48.042;10.088;2024-01-15T02:40:33;17.10;;;10.27;;
75165;SDS011;63747;48.042;10.088;2024-01-15T02:43:34;16.73;;;9.18;;
75165;SDS011;63747;48.042;10.088;2024-01-15T02:46:35;18.53;;;10.00;;
75165;SDS011;63747;48.042;10.088;2024-01-15T02:49:35;15.47;;;9.00;;
75165;SDS011;63747;48.042;10.088;2024-01-15T02:52:36;18.23;;;10.60;;
75165;SDS011;63747;48.042;10.088;2024-01-15T02:55:37;18.30;;;10.20;;
75165;SDS011;63747;48.042;10.088;2024-01-15T02:58:37;19.13;;;9.27;;
75165;SDS011;63747;48.042;10.088;2024-01-15T03:01:38;13.60;;;7.47;;
75165;SDS011;63747;48.042;10.088;2024-01-15T03:04:42;19.90;;;9.90;;
75165;SDS011;63747;48.042;10.088;2024-01-15T03:07:46;19.80;;;9.98;;
75165;SDS011;63747;48.042;10.088;2024-01-15T03:10:47;19.80;;;10.10;;
75165;SDS011;63747;48.042;10.088;2024-01-15T03:13:48;18.53;;;9.97;;
75165;SDS011;63747;48.042;10.088;2024-01-15T03:16:49;21.53;;;10.70;;
75165;SDS011;63747;48.042;10.088;2024-01-15T03:19:49;19.50;;;9.23;;
75165;SDS011;63747;48.042;10.088;2024-01-15T03:22:50;20.37;;;9.93;;
75165;SDS011;63747;48.042;10.088;2024-01-15T03:25:51;20.20;;;9.77;;
75165;SDS011;63747;48.042;10.088;2024-01-15T03:28:52;20.10;;;10.20;;
75165;SDS011;63747;48.042;10.088;2024-01-15T03:31:52;18.07;;;10.03;;
75165;SDS011;63747;48.042;10.088;2024-01-15T03:34:53;20.60;;;11.40;;
75165;SDS011;63747;48.042;10.088;2024-01-15T03:37:54;18.00;;;9.20;;
75165;SDS011;63747;48.042;10.088;2024-01-15T03:40:55;20.03;;;10.70;;
75165;SDS011;63747;48.042;10.088;2024-01-15T03:43:55;19.13;;;10.13;;
75165;SDS011;63747;48.042;10.088;2024-01-15T03:46:56;17.47;;;9.50;;
75165;SDS011;63747;48.042;10.088;2024-01-15T03:49:58;17.90;;;9.48;;
75165;SDS011;63747;48.042;10.088;2024-01-15T03:52:58;17.90;;;9.67;;
75165;SDS011;63747;48.042;10.088;2024-01-15T03:55:59;21.37;;;10.23;;
75165;SDS011;63747;48.042;10.088;2024-01-15T03:59:00;19.97;;;9.33;;
75165;SDS011;63747;48.042;10.088;2024-01-15T04:02:00;17.43;;;9.97;;
75165;SDS011;63747;48.042;10.088;2024-01-15T04:05:02;16.83;;;9.07;;
75165;SDS011;63747;48.042;10.088;2024-01-15T04:08:02;18.60;;;9.57;;
75165;SDS011;63747;48.042;10.088;2024-01-15T04:11:03;18.10;;;9.83;;
75165;SDS011;63747;48.042;10.088;2024-01-15T04:14:04;18.83;;;9.57;;
75165;SDS011;63747;48.042;10.088;2024-01-15T04:17:04;15.70;;;8.77;;
75165;SDS011;63747;48.042;10.088;2024-01-15T04:20:05;15.63;;;9.07;;
75165;SDS011;63747;48.042;10.088;2024-01-15T04:23:06;16.35;;;9.18;;
75165;SDS011;63747;48.042;10.088;2024-01-15T04:26:07;15.17;;;9.00;;
75165;SDS011;63747;48.042;10.088;2024-01-15T04:29:08;19.43;;;9.63;;
75165;SDS011;63747;48.042;10.088;2024-01-15T04:32:09;20.13;;;10.50;;
75165;SDS011;63747;48.042;10.088;2024-01-15T04:35:09;15.33;;;9.27;;
75165;SDS011;63747;48.042;10.088;2024-01-15T04:38:10;17.17;;;9.07;;
75165;SDS011;63747;48.042;10.088;2024-01-15T04:41:14;16.30;;;7.87;;
75165;SDS011;63747;48.042;10.088;2024-01-15T04:44:16;15.68;;;8.48;;
75165;SDS011;63747;48.042;10.088;2024-01-15T04:47:16;14.07;;;8.37;;
75165;SDS011;63747;48.042;10.088;2024-01-15T04:50:17;17.53;;;8.20;;
75165;SDS011;63747;48.042;10.088;2024-01-15T04:53:18;17.23;;;8.70;;
75165;SDS011;63747;48.042;10.088;2024-01-15T04:56:19;16.20;;;8.07;;
75165;SDS011;63747;48.042;10.088;2024-01-15T04:59:19;13.50;;;7.73;;
75165;SDS011;63747;48.042;10.088;2024-01-15T05:02:20;14.03;;;7.67;;
75165;SDS011;63747;48.042;10.088;2024-01-15T05:05:21;13.87;;;7.63;;
75165;SDS011;63747;48.042;10.088;2024-01-15T05:08:22;13.83;;;7.57;;
75165;SDS011;63747;48.042;10.088;2024-01-15T05:11:22;11.77;;;6.33;;
75165;SDS011;63747;48.042;10.088;2024-01-15T05:14:23;13.97;;;8.00;;
75165;SDS011;63747;48.042;10.088;2024-01-15T05:17:24;14.80;;;7.90;;
75165;SDS011;63747;48.042;10.088;2024-01-15T05:20:24;12.30;;;7.57;;
75165;SDS011;63747;48.042;10.088;2024-01-15T05:23:25;16.67;;;7.97;;
75165;SDS011;63747;48.042;10.088;2024-01-15T05:26:26;14.07;;;8.37;;
75165;SDS011;63747;48.042;10.088;2024-01-15T05:29:26;13.77;;;7.87;;
75165;SDS011;63747;48.042;10.088;2024-01-15T05:32:28;13.98;;;7.40;;
75165;SDS011;63747;48.042;10.088;2024-01-15T05:35:29;14.68;;;8.20;;
75165;SDS011;63747;48.042;10.088;2024-01-15T05:38:30;14.40;;;8.30;;
75165;SDS011;63747;48.042;10.088;2024-01-15T05:41:30;14.87;;;8.77;;
75165;SDS011;63747;48.042;10.088;2024-01-15T05:44:31;15.13;;;7.47;;
75165;SDS011;63747;48.042;10.088;2024-01-15T05:47:32;14.50;;;7.97;;
75165;SDS011;63747;48.042;10.088;2024-01-15T05:50:33;13.97;;;7.63;;
75165;SDS011;63747;48.042;10.088;2024-01-15T05:53:33;12.63;;;7.33;;
75165;SDS011;63747;48.042;10.088;2024-01-15T05:56:34;15.00;;;8.40;;
75165;SDS011;63747;48.042;10.088;2024-01-15T05:59:35;13.53;;;7.60;;
75165;SDS011;63747;48.042;10.088;2024-01-15T06:02:39;11.45;;;6.35;;
75165;SDS011;63747;48.042;10.088;2024-01-15T06:05:40;12.10;;;7.43;;
75165;SDS011;63747;48.042;10.088;2024-01-15T06:08:41;12.83;;;7.03;;
75165;SDS011;63747;48.042;10.088;2024-01-15T06:11:42;11.37;;;6.10;;
75165;SDS011;63747;48.042;10.088;2024-01-15T06:14:42;12.50;;;7.20;;
75165;SDS011;63747;48.042;10.088;2024-01-15T06:17:43;14.07;;;7.10;;
75165;SDS011;63747;48.042;10.088;2024-01-15T06:20:44;11.53;;;6.97;;
75165;SDS011;63747;48.042;10.088;2024-01-15T06:23:45;13.00;;;7.43;;
75165;SDS011;63747;48.042;10.088;2024-01-15T06:26:46;11.93;;;6.30;;
75165;SDS011;63747;48.042;10.088;2024-01-15T06:29:47;11.20;;;6.57;;
75165;SDS011;63747;48.042;10.088;2024-01-15T06:32:48;12.47;;;7.53;;
75165;SDS011;63747;48.042;10.088;2024-01-15T06:38:50;11.95;;;6.63;;
75165;SDS011;63747;48.042;10.088;2024-01-15T06:41:51;9.80;;;6.40;;
75165;SDS011;63747;48.042;10.088;2024-01-15T06:44:52;10.60;;;5.90;;
75165;SDS011;63747;48.042;10.088;2024-01-15T06:47:52;9.60;;;5.70;;
75165;SDS011;63747;48.042;10.088;2024-01-15T06:50:53;8.40;;;5.00;;
75165;SDS011;63747;48.042;10.088;2024-01-15T06:53:54;12.20;;;7.40;;
75165;SDS011;63747;48.042;10.088;2024-01-15T06:56:55;13.37;;;6.47;;
75165;SDS011;63747;48.042;10.088;2024-01-15T06:59:55;13.33;;;6.87;;
75165;SDS011;63747;48.042;10.088;2024-01-15T07:02:56;15.67;;;9.10;;
75165;SDS011;63747;48.042;10.088;2024-01-15T07:05:57;13.17;;;7.43;;
75165;SDS011;63747;48.042;10.088;2024-01-15T07:08:57;11.73;;;6.47;;
75165;SDS011;63747;48.042;10.088;2024-01-15T07:11:58;10.60;;;6.13;;
75165;SDS011;63747;48.042;10.088;2024-01-15T07:14:59;11.10;;;6.32;;
75165;SDS011;63747;48.042;10.088;2024-01-15T07:18:00;10.67;;;6.07;;
75165;SDS011;63747;48.042;10.088;2024-01-15T07:21:01;10.37;;;6.53;;
75165;SDS011;63747;48.042;10.088;2024-01-15T07:24:02;11.20;;;6.68;;
75165;SDS011;63747;48.042;10.088;2024-01-15T07:27:03;9.10;;;5.63;;
75165;SDS011;63747;48.042;10.088;2024-01-15T07:30:04;10.43;;;5.32;;
75165;SDS011;63747;48.042;10.088;2024-01-15T07:33:06;11.15;;;5.93;;
75165;SDS011;63747;48.042;10.088;2024-01-15T07:36:07;9.97;;;5.77;;
75165;SDS011;63747;48.042;10.088;2024-01-15T07:39:08;9.97;;;5.40;;
75165;SDS011;63747;48.042;10.088;2024-01-15T07:42:08;9.03;;;4.97;;
75165;SDS011;63747;48.042;10.088;2024-01-15T07:45:10;8.20;;;5.03;;
75165;SDS011;63747;48.042;10.088;2024-01-15T07:48:11;9.10;;;5.55;;
75165;SDS011;63747;48.042;10.088;2024-01-15T07:51:12;8.20;;;5.10;;
75165;SDS011;63747;48.042;10.088;2024-01-15T07:54:13;9.83;;;5.67;;
75165;SDS011;63747;48.042;10.088;2024-01-15T07:57:13;7.97;;;5.00;;
75165;SDS011;63747;48.042;10.088;2024-01-15T08:00:14;9.07;;;5.47;;
75165;SDS011;63747;48.042;10.088;2024-01-15T08:03:15;8.80;;;5.23;;
75165;SDS011;63747;48.042;10.088;2024-01-15T08:06:16;9.60;;;5.10;;
75165;SDS011;63747;48.042;10.088;2024-01-15T08:09:16;7.87;;;4.50;;
75165;SDS011;63747;48.042;10.088;2024-01-15T08:12:17;9.43;;;5.10;;
75165;SDS011;63747;48.042;10.088;2024-01-15T08:15:18;8.43;;;5.30;;
75165;SDS011;63747;48.042;10.088;2024-01-15T08:18:19;10.50;;;5.50;;
75165;SDS011;63747;48.042;10.088;2024-01-15T08:21:21;9.02;;;5.20;;
75165;SDS011;63747;48.042;10.088;2024-01-15T08:24:22;9.20;;;5.20;;
75165;SDS011;63747;48.042;10.088;2024-01-15T08:27:23;7.43;;;4.43;;
75165;SDS011;63747;48.042;10.088;2024-01-15T08:30:23;8.03;;;4.83;;
75165;SDS011;63747;48.042;10.088;2024-01-15T08:33:27;7.97;;;4.88;;
75165;SDS011;63747;48.042;10.088;2024-01-15T08:36:28;8.90;;;5.20;;
75165;SDS011;63747;48.042;10.088;2024-01-15T08:39:31;7.45;;;4.22;;
75165;SDS011;63747;48.042;10.088;2024-01-15T08:42:32;5.87;;;3.27;;
75165;SDS011;63747;48.042;10.088;2024-01-15T08:45:33;7.10;;;3.67;;
75165;SDS011;63747;48.042;10.088;2024-01-15T08:48:33;5.50;;;3.70;;
75165;SDS011;63747;48.042;10.088;2024-01-15T08:51:34;8.27;;;3.97;;
75165;SDS011;63747;48.042;10.088;2024-01-15T08:54:35;8.77;;;4.10;;
75165;SDS011;63747;48.042;10.088;2024-01-15T08:57:35;5.63;;;3.60;;
75165;SDS011;63747;48.042;10.088;2024-01-15T09:00:36;6.40;;;3.77;;
75165;SDS011;63747;48.042;10.088;2024-01-15T09:03:37;6.47;;;3.77;;
75165;SDS011;63747;48.042;10.088;2024-01-15T09:06:37;6.50;;;4.07;;
75165;SDS011;63747;48.042;10.088;2024-01-15T09:09:38;7.07;;;3.77;;
75165;SDS011;63747;48.042;10.088;2024-01-15T09:12:39;6.73;;;3.93;;
75165;SDS011;63747;48.042;10.088;2024-01-15T09:15:39;5.90;;;3.67;;
75165;SDS011;63747;48.042;10.088;2024-01-15T09:18:40;9.50;;;5.07;;
75165;SDS011;63747;48.042;10.088;2024-01-15T09:21:41;9.10;;;4.50;;
75165;SDS011;63747;48.042;10.088;2024-01-15T09:24:41;8.30;;;4.33;;
75165;SDS011;63747;48.042;10.088;2024-01-15T09:27:42;6.80;;;3.67;;
75165;SDS011;63747;48.042;10.088;2024-01-15T09:30:43;8.00;;;3.83;;
75165;SDS011;63747;48.042;10.088;2024-01-15T09:33:45;6.45;;;4.15;;
75165;SDS011;63747;48.042;10.088;2024-01-15T09:36:46;6.23;;;3.83;;
75165;SDS011;63747;48.042;10.088;2024-01-15T09:39:48;6.90;;;3.70;;
75165;SDS011;63747;48.042;10.088;2024-01-15T09:42:50;7.75;;;4.05;;
75165;SDS011;63747;48.042;10.088;2024-01-15T09:45:52;6.85;;;3.85;;
75165;SDS011;63747;48.042;10.088;2024-01-15T09:48:54;6.78;;;3.70;;
75165;SDS011;63747;48.042;10.088;2024-01-15T09:51:55;7.20;;;3.93;;
75165;SDS011;63747;48.042;10.088;2024-01-15T09:58:03;5.75;;;3.50;;
75165;SDS011;63747;48.042;10.088;2024-01-15T10:01:04;7.97;;;4.17;;
75165;SDS011;63747;48.042;10.088;2024-01-15T10:04:05;6.40;;;3.77;;
75165;SDS011;63747;48.042;10.088;2024-01-15T10:07:05;7.00;;;3.90;;
75165;SDS011;63747;48.042;10.088;2024-01-15T10:10:10;7.57;;;4.30;;
75165;SDS011;63747;48.042;10.088;2024-01-15T10:13:11;7.60;;;4.32;;
75165;SDS011;63747;48.042;10.088;2024-01-15T10:16:14;5.25;;;3.45;;
75165;SDS011;63747;48.042;10.088;2024-01-15T10:19:15;5.77;;;3.27;;
75165;SDS011;63747;48.042;10.088;2024-01-15T10:22:15;6.63;;;3.47;;
75165;SDS011;63747;48.042;10.088;2024-01-15T10:25:18;5.00;;;3.13;;
75165;SDS011;63747;48.042;10.088;2024-01-15T10:28:26;6.43;;;3.30;;
75165;SDS011;63747;48.042;10.088;2024-01-15T10:31:27;6.20;;;4.15;;
75165;SDS011;63747;48.042;10.088;2024-01-15T10:34:30;6.53;;;4.07;;
75165;SDS011;63747;48.042;10.088;2024-01-15T10:37:32;7.65;;;3.80;;
75165;SDS011;63747;48.042;10.088;2024-01-15T10:40:34;6.07;;;3.67;;
75165;SDS011;63747;48.042;10.088;2024-01-15T10:43:34;8.53;;;3.93;;
75165;SDS011;63747;48.042;10.088;2024-01-15T10:46:35;7.10;;;3.87;;
75165;SDS011;63747;48.042;10.088;2024-01-15T10:49:37;6.43;;;4.18;;
75165;SDS011;63747;48.042;10.088;2024-01-15T10:52:38;6.93;;;4.10;;
75165;SDS011;63747;48.042;10.088;2024-01-15T10:55:41;6.70;;;4.40;;
75165;SDS011;63747;48.042;10.088;2024-01-15T10:58:42;8.00;;;4.63;;
75165;SDS011;63747;48.042;10.088;2024-01-15T11:01:43;6.95;;;4.28;;
75165;SDS011;63747;48.042;10.088;2024-01-15T11:04:46;9.88;;;5.30;;
75165;SDS011;63747;48.042;10.088;2024-01-15T11:07:47;10.53;;;5.50;;
75165;SDS011;63747;48.042;10.088;2024-01-15T11:13:52;8.10;;;4.15;;
75165;SDS011;63747;48.042;10.088;2024-01-15T11:16:54;8.23;;;4.40;;
75165;SDS011;63747;48.042;10.088;2024-01-15T11:20:05;7.68;;;4.70;;
75165;SDS011;63747;48.042;10.088;2024-01-15T11:23:06;7.47;;;4.38;;
75165;SDS011;63747;48.042;10.088;2024-01-15T11:29:30;6.18;;;3.97;;
75165;SDS011;63747;48.042;10.088;2024-01-15T11:32:34;9.25;;;4.82;;
75165;SDS011;63747;48.042;10.088;2024-01-15T11:35:48;8.50;;;5.10;;
75165;SDS011;63747;48.042;10.088;2024-01-15T11:38:50;8.38;;;4.88;;
75165;SDS011;63747;48.042;10.088;2024-01-15T11:41:52;7.77;;;4.77;;
75165;SDS011;63747;48.042;10.088;2024-01-15T11:44:55;7.72;;;4.28;;
75165;SDS011;63747;48.042;10.088;2024-01-15T11:51:15;7.03;;;4.60;;
75165;SDS011;63747;48.042;10.088;2024-01-15T11:54:18;9.60;;;4.90;;
75165;SDS011;63747;48.042;10.088;2024-01-15T11:57:30;8.05;;;5.20;;
75165;SDS011;63747;48.042;10.088;2024-01-15T12:00:44;7.03;;;4.40;;
75165;SDS011;63747;48.042;10.088;2024-01-15T12:03:47;16.42;;;4.72;;
75165;SDS011;63747;48.042;10.088;2024-01-15T12:06:48;7.50;;;4.87;;
75165;SDS011;63747;48.042;10.088;2024-01-15T12:09:48;8.80;;;5.07;;
75165;SDS011;63747;48.042;10.088;2024-01-15T12:16:06;11.20;;;4.50;;
75165;SDS011;63747;48.042;10.088;2024-01-15T12:19:07;8.17;;;5.30;;
75165;SDS011;63747;48.042;10.088;2024-01-15T12:22:08;9.83;;;6.03;;
75165;SDS011;63747;48.042;10.088;2024-01-15T12:25:09;10.53;;;5.63;;
75165;SDS011;63747;48.042;10.088;2024-01-15T12:28:10;10.60;;;6.32;;
75165;SDS011;63747;48.042;10.088;2024-01-15T12:31:11;8.17;;;5.87;;
75165;SDS011;63747;48.042;10.088;2024-01-15T12:34:12;9.70;;;6.10;;
75165;SDS011;63747;48.042;10.088;2024-01-15T12:37:12;9.23;;;5.20;;
75165;SDS011;63747;48.042;10.088;2024-01-15T12:40:13;15.13;;;5.33;;
75165;SDS011;63747;48.042;10.088;2024-01-15T12:43:19;12.18;;;5.82;;
75165;SDS011;63747;48.042;10.088;2024-01-15T12:46:20;11.17;;;5.80;;
75165;SDS011;63747;48.042;10.088;2024-01-15T12:49:21;8.93;;;4.90;;
75165;SDS011;63747;48.042;10.088;2024-01-15T12:52:24;9.65;;;6.03;;
75165;SDS011;63747;48.042;10.088;2024-01-15T12:55:27;9.45;;;5.32;;
75165;SDS011;63747;48.042;10.088;2024-01-15T12:58:27;9.20;;;5.90;;
75165;SDS011;63747;48.042;10.088;2024-01-15T13:01:28;8.73;;;5.70;;
75165;SDS011;63747;48.042;10.088;2024-01-15T13:04:29;10.63;;;5.00;;
75165;SDS011;63747;48.042;10.088;2024-01-15T13:07:30;8.33;;;4.97;;
75165;SDS011;63747;48.042;10.088;2024-01-15T13:10:31;9.13;;;4.83;;
75165;SDS011;63747;48.042;10.088;2024-01-15T13:13:32;10.07;;;5.03;;
75165;SDS011;63747;48.042;10.088;2024-01-15T13:16:34;6.68;;;4.68;;
75165;SDS011;63747;48.042;10.088;2024-01-15T13:19:35;8.43;;;4.93;;
75165;SDS011;63747;48.042;10.088;2024-01-15T13:22:35;8.17;;;5.33;;
75165;SDS011;63747;48.042;10.088;2024-01-15T13:25:39;9.20;;;5.18;;
75165;SDS011;63747;48.042;10.088;2024-01-15T13:28:39;7.93;;;4.77;;
75165;SDS011;63747;48.042;10.088;2024-01-15T13:31:40;8.30;;;4.80;;
75165;SDS011;63747;48.042;10.088;2024-01-15T13:34:41;7.77;;;5.03;;
75165;SDS011;63747;48.042;10.088;2024-01-15T13:37:42;8.47;;;5.43;;
75165;SDS011;63747;48.042;10.088;2024-01-15T13:40:42;7.97;;;4.97;;
75165;SDS011;63747;48.042;10.088;2024-01-15T13:43:49;10.32;;;5.05;;
75165;SDS011;63747;48.042;10.088;2024-01-15T13:46:50;8.52;;;4.82;;
75165;SDS011;63747;48.042;10.088;2024-01-15T13:49:52;10.50;;;5.00;;
75165;SDS011;63747;48.042;10.088;2024-01-15T13:52:53;9.47;;;5.40;;
75165;SDS011;63747;48.042;10.088;2024-01-15T13:55:54;9.33;;;5.23;;
75165;SDS011;63747;48.042;10.088;2024-01-15T13:58:54;8.87;;;5.23;;
75165;SDS011;63747;48.042;10.088;2024-01-15T14:01:55;9.37;;;5.03;;
75165;SDS011;63747;48.042;10.088;2024-01-15T14:04:56;7.90;;;4.72;;
75165;SDS011;63747;48.042;10.088;2024-01-15T14:07:57;9.10;;;5.50;;
75165;SDS011;63747;48.042;10.088;2024-01-15T14:10:58;8.45;;;4.82;;
75165;SDS011;63747;48.042;10.088;2024-01-15T14:13:59;8.87;;;5.10;;
75165;SDS011;63747;48.042;10.088;2024-01-15T14:17:00;8.80;;;4.97;;
75165;SDS011;63747;48.042;10.088;2024-01-15T14:20:00;8.27;;;4.50;;
75165;SDS011;63747;48.042;10.088;2024-01-15T14:23:01;10.07;;;5.33;;
75165;SDS011;63747;48.042;10.088;2024-01-15T14:26:02;6.80;;;4.67;;
75165;SDS011;63747;48.042;10.088;2024-01-15T14:29:04;7.68;;;4.65;;
75165;SDS011;63747;48.042;10.088;2024-01-15T14:32:05;8.75;;;5.22;;
75165;SDS011;63747;48.042;10.088;2024-01-15T14:35:06;6.37;;;3.77;;
75165;SDS011;63747;48.042;10.088;2024-01-15T14:38:10;6.43;;;4.15;;
75165;SDS011;63747;48.042;10.088;2024-01-15T14:41:11;8.13;;;4.60;;
75165;SDS011;63747;48.042;10.088;2024-01-15T14:44:12;8.47;;;4.63;;
75165;SDS011;63747;48.042;10.088;2024-01-15T14:50:14;7.90;;;4.03;;
75165;SDS011;63747;48.042;10.088;2024-01-15T14:53:14;7.57;;;4.80;;
75165;SDS011;63747;48.042;10.088;2024-01-15T14:56:15;7.53;;;3.90;;
75165;SDS011;63747;48.042;10.088;2024-01-15T14:59:16;8.00;;;4.63;;
75165;SDS011;63747;48.042;10.088;2024-01-15T15:02:17;6.67;;;4.33;;
75165;SDS011;63747;48.042;10.088;2024-01-15T15:05:18;7.22;;;4.25;;
75165;SDS011;63747;48.042;10.088;2024-01-15T15:08:20;8.63;;;4.57;;
75165;SDS011;63747;48.042;10.088;2024-01-15T15:11:20;6.87;;;4.00;;
75165;SDS011;63747;48.042;10.088;2024-01-15T15:14:22;8.10;;;4.38;;
75165;SDS011;63747;48.042;10.088;2024-01-15T15:17:23;7.73;;;4.50;;
75165;SDS011;63747;48.042;10.088;2024-01-15T15:20:24;7.60;;;4.47;;
75165;SDS011;63747;48.042;10.088;2024-01-15T15:23:24;6.07;;;4.13;;
75165;SDS011;63747;48.042;10.088;2024-01-15T15:26:25;5.43;;;3.57;;
75165;SDS011;63747;48.042;10.088;2024-01-15T15:29:26;6.23;;;4.37;;
75165;SDS011;63747;48.042;10.088;2024-01-15T15:32:28;9.43;;;5.00;;
75165;SDS011;63747;48.042;10.088;2024-01-15T15:35:29;12.13;;;6.03;;
75165;SDS011;63747;48.042;10.088;2024-01-15T15:38:33;9.50;;;5.73;;
75165;SDS011;63747;48.042;10.088;2024-01-15T15:41:34;7.55;;;4.60;;
75165;SDS011;63747;48.042;10.088;2024-01-15T15:44:36;14.30;;;7.80;;
75165;SDS011;63747;48.042;10.088;2024-01-15T15:47:37;9.27;;;4.90;;
75165;SDS011;63747;48.042;10.088;2024-01-15T15:50:38;9.83;;;5.67;;
75165;SDS011;63747;48.042;10.088;2024-01-15T15:53:39;16.73;;;9.43;;
75165;SDS011;63747;48.042;10.088;2024-01-15T15:56:40;8.40;;;5.72;;
75165;SDS011;63747;48.042;10.088;2024-01-15T15:59:42;8.77;;;5.38;;
75165;SDS011;63747;48.042;10.088;2024-01-15T16:02:43;11.67;;;6.60;;
75165;SDS011;63747;48.042;10.088;2024-01-15T16:05:43;9.77;;;5.57;;
75165;SDS011;63747;48.042;10.088;2024-01-15T16:08:44;10.53;;;5.57;;
75165;SDS011;63747;48.042;10.088;2024-01-15T16:11:45;10.20;;;4.90;;
75165;SDS011;63747;48.042;10.088;2024-01-15T16:14:46;7.20;;;5.28;;
75165;SDS011;63747;48.042;10.088;2024-01-15T16:17:47;8.27;;;5.00;;
75165;SDS011;63747;48.042;10.088;2024-01-15T16:20:49;9.18;;;4.80;;
75165;SDS011;63747;48.042;10.088;2024-01-15T16:23:50;5.97;;;4.13;;
75165;SDS011;63747;48.042;10.088;2024-01-15T16:26:52;8.05;;;4.82;;
75165;SDS011;63747;48.042;10.088;2024-01-15T16:29:52;7.20;;;3.97;;
75165;SDS011;63747;48.042;10.088;2024-01-15T16:32:53;6.20;;;4.13;;
75165;SDS011;63747;48.042;10.088;2024-01-15T16:35:54;5.33;;;3.50;;
75165;SDS011;63747;48.042;10.088;2024-01-15T16:38:54;3.43;;;2.30;;
75165;SDS011;63747;48.042;10.088;2024-01-15T16:41:55;5.43;;;3.27;;
75165;SDS011;63747;48.042;10.088;2024-01-15T16:44:56;4.33;;;2.70;;
75165;SDS011;63747;48.042;10.088;2024-01-15T16:47:56;8.07;;;4.13;;
75165;SDS011;63747;48.042;10.088;2024-01-15T16:50:57;17.17;;;10.17;;
75165;SDS011;63747;48.042;10.088;2024-01-15T16:53:58;8.00;;;5.00;;
75165;SDS011;63747;48.042;10.088;2024-01-15T16:56:58;10.33;;;7.10;;
75165;SDS011;63747;48.042;10.088;2024-01-15T16:59:59;16.00;;;10.40;;
75165;SDS011;63747;48.042;10.088;2024-01-15T17:03:00;9.00;;;5.93;;
75165;SDS011;63747;48.042;10.088;2024-01-15T17:06:00;6.03;;;3.90;;
75165;SDS011;63747;48.042;10.088;2024-01-15T17:09:01;7.20;;;4.53;;
75165;SDS011;63747;48.042;10.088;2024-01-15T17:12:03;4.07;;;2.57;;
75165;SDS011;63747;48.042;10.088;2024-01-15T17:15:04;4.93;;;3.00;;
75165;SDS011;63747;48.042;10.088;2024-01-15T17:18:05;5.55;;;4.10;;
75165;SDS011;63747;48.042;10.088;2024-01-15T17:21:06;7.97;;;5.80;;
75165;SDS011;63747;48.042;10.088;2024-01-15T17:24:07;6.70;;;3.93;;
75165;SDS011;63747;48.042;10.088;2024-01-15T17:27:08;3.93;;;1.60;;
75165;SDS011;63747;48.042;10.088;2024-01-15T17:30:08;3.50;;;2.13;;
75165;SDS011;63747;48.042;10.088;2024-01-15T17:33:09;5.30;;;2.70;;
75165;SDS011;63747;48.042;10.088;2024-01-15T17:36:10;6.13;;;4.17;;
75165;SDS011;63747;48.042;10.088;2024-01-15T17:39:11;7.87;;;3.47;;
75165;SDS011;63747;48.042;10.088;2024-01-15T17:42:11;3.63;;;2.33;;
75165;SDS011;63747;48.042;10.088;2024-01-15T17:45:13;3.53;;;1.80;;
75165;SDS011;63747;48.042;10.088;2024-01-15T17:48:15;4.72;;;2.30;;
75165;SDS011;63747;48.042;10.088;2024-01-15T17:51:16;3.53;;;2.47;;
75165;SDS011;63747;48.042;10.088;2024-01-15T17:54:18;5.47;;;3.08;;
75165;SDS011;63747;48.042;10.088;2024-01-15T17:57:19;4.47;;;2.13;;
75165;SDS011;63747;48.042;10.088;2024-01-15T18:00:20;3.93;;;2.43;;
75165;SDS011;63747;48.042;10.088;2024-01-15T18:03:20;3.63;;;1.77;;
75165;SDS011;63747;48.042;10.088;2024-01-15T18:06:21;2.20;;;1.70;;
75165;SDS011;63747;48.042;10.088;2024-01-15T18:09:22;2.33;;;1.80;;
75165;SDS011;63747;48.042;10.088;2024-01-15T18:12:24;6.27;;;1.80;;
75165;SDS011;63747;48.042;10.088;2024-01-15T18:15:25;3.08;;;1.75;;